TimeAST,TemperatureF,Dew PointF,Humidity,Sea Level PressureIn,VisibilityMPH,Wind Direction,Wind SpeedMPH,Gust SpeedMPH,PrecipitationIn,Events,Conditions,WindDirDegrees,DateUTC
12:00 AM,89.6,69.8,52,29.71,-9999.0,Variable,1.2,-,N/A,,Clear,0,2013-05-22 21:00:00
12:30 AM,87.8,69.8,55,29.71,5.0,North,3.5,-,N/A,,Unknown,10,2013-05-22 21:30:00
1:00 AM,87.8,66.2,49,29.71,5.0,NNW,10.4,-,N/A,,Unknown,330,2013-05-22 22:00:00
1:30 AM,87.8,71.6,58,29.71,5.0,NNW,12.7,-,N/A,,Unknown,340,2013-05-22 22:30:00
2:00 AM,86.0,71.6,62,29.71,5.0,NNW,15.0,-,N/A,,Unknown,340,2013-05-22 23:00:00
2:30 AM,84.2,75.2,74,29.71,5.0,NNW,15.0,-,N/A,,Unknown,340,2013-05-22 23:30:00
3:00 AM,,73,,29.73,1,NNE,109.3,,,,,20,2013-05-23 00:00:00
3:00 AM,86.0,73.4,66,29.71,5.0,NNW,16.1,-,N/A,,Unknown,340,2013-05-23 00:00:00
3:30 AM,87.8,66.2,49,29.71,5.0,NNW,16.1,-,N/A,,Unknown,340,2013-05-23 00:30:00
4:00 AM,87.8,62.6,43,29.71,5.0,NNW,19.6,-,N/A,,Unknown,340,2013-05-23 01:00:00
4:30 AM,86.0,64.4,48,29.71,5.0,NNW,19.6,-,N/A,,Unknown,340,2013-05-23 01:30:00
5:00 AM,86.0,66.2,51,29.74,5.0,NNW,18.4,-,N/A,,Unknown,340,2013-05-23 02:00:00
5:30 AM,86.0,64.4,48,29.74,-9999.0,North,18.4,-,N/A,,Clear,350,2013-05-23 02:30:00
6:00 AM,87.8,64.4,46,29.77,-9999.0,NNW,18.4,-,N/A,,Clear,340,2013-05-23 03:00:00
6:30 AM,89.6,64.4,43,29.80,-9999.0,North,19.6,-,N/A,,Clear,350,2013-05-23 03:30:00
7:00 AM,89.6,62.6,40,29.80,-9999.0,North,19.6,-,N/A,,Clear,350,2013-05-23 04:00:00
8:00 AM,93.2,60.8,34,29.80,-9999.0,NNW,21.9,-,N/A,,Clear,340,2013-05-23 05:00:00
8:30 AM,95.0,59.0,30,29.80,-9999.0,NNW,21.9,-,N/A,,Clear,340,2013-05-23 05:30:00
9:00 AM,96,56,17,29.82,6,NNW,20.7,,,,,340,2013-05-23 06:00:00
9:00 AM,96.8,55.4,25,29.80,-9999.0,NNW,20.7,-,N/A,,Clear,340,2013-05-23 06:00:00
9:30 AM,96.8,53.6,23,29.80,-9999.0,North,23.0,-,N/A,,Clear,350,2013-05-23 06:30:00
10:00 AM,96.8,57.2,27,29.80,-9999.0,North,17.3,-,N/A,,Clear,350,2013-05-23 07:00:00
10:30 AM,96.8,60.8,30,29.80,-9999.0,North,19.6,-,N/A,,Clear,360,2013-05-23 07:30:00
11:00 AM,96.8,62.6,32,29.80,-9999.0,North,17.3,-,N/A,,Clear,360,2013-05-23 08:00:00
12:00 PM,96.8,62.6,32,29.80,-9999.0,North,17.3,-,N/A,,Clear,10,2013-05-23 09:00:00
12:30 PM,96.8,62.6,32,29.77,-9999.0,North,16.1,-,N/A,,Clear,10,2013-05-23 09:30:00
1:00 PM,98.6,57.2,25,29.77,5.6,North,21.9,-,N/A,,Unknown,360,2013-05-23 10:00:00
1:30 PM,98.6,51.8,21,29.77,5.0,North,20.7,-,N/A,,Unknown,360,2013-05-23 10:30:00
2:00 PM,100.4,50.0,18,29.77,5.6,North,20.7,-,N/A,,Unknown,360,2013-05-23 11:00:00
2:30 PM,98.6,55.4,24,29.77,-9999.0,North,17.3,-,N/A,,Clear,10,2013-05-23 11:30:00
3:00 PM,97,57,18,29.77,6,North,16.1,,,,,10,2013-05-23 12:00:00
3:00 PM,96.8,57.2,27,29.74,-9999.0,North,16.1,-,N/A,,Clear,10,2013-05-23 12:00:00
3:30 PM,100.4,57.2,24,29.74,-9999.0,NNW,20.7,-,N/A,,Clear,340,2013-05-23 12:30:00
4:00 PM,100.4,35.6,11,29.74,-9999.0,NW,16.1,-,N/A,,Clear,320,2013-05-23 13:00:00
4:30 PM,98.6,32.0,10,29.74,-9999.0,NNW,17.3,-,N/A,,Clear,330,2013-05-23 13:30:00
5:00 PM,98.6,33.8,10,29.74,-9999.0,NNW,16.1,-,N/A,,Clear,330,2013-05-23 14:00:00
5:30 PM,96.8,35.6,12,29.74,-9999.0,NNW,18.4,-,N/A,,Clear,330,2013-05-23 14:30:00
6:00 PM,95.0,39.2,14,29.74,-9999.0,NW,15.0,-,N/A,,Clear,320,2013-05-23 15:00:00
6:30 PM,93.2,42.8,17,29.74,-9999.0,NW,12.7,-,N/A,,Clear,320,2013-05-23 15:30:00
7:00 PM,93.2,46.4,20,29.74,-9999.0,NW,12.7,-,N/A,,Clear,320,2013-05-23 16:00:00
7:30 PM,91.4,50.0,24,29.77,-9999.0,NW,12.7,-,N/A,,Clear,310,2013-05-23 16:30:00
8:00 PM,89.6,50.0,26,29.77,-9999.0,NW,13.8,-,N/A,,Clear,310,2013-05-23 17:00:00
8:30 PM,89.6,51.8,27,29.74,-9999.0,NW,11.5,-,N/A,,Clear,310,2013-05-23 17:30:00
9:00 PM,89,51,18,29.78,9,NW,12.7,,,,,310,2013-05-23 18:00:00
9:00 PM,89.6,51.8,27,29.77,-9999.0,NW,12.7,-,N/A,,Clear,310,2013-05-23 18:00:00
9:30 PM,89.6,48.2,24,29.77,-9999.0,NW,13.8,-,N/A,,Clear,310,2013-05-23 18:30:00
10:00 PM,89.6,51.8,27,29.77,-9999.0,NW,13.8,25.3,N/A,,Clear,310,2013-05-23 19:00:00
10:30 PM,89.6,51.8,27,29.77,-9999.0,NW,12.7,-,N/A,,Clear,310,2013-05-23 19:30:00
11:00 PM,89.6,53.6,29,29.77,-9999.0,WNW,10.4,-,N/A,,Clear,300,2013-05-23 20:00:00